createdAt,value
2023-05-19T00:00:20.783Z,1017.05
2023-05-19T00:01:20.777Z,1017.01
2023-05-19T00:02:20.819Z,1017.00
2023-05-19T00:03:20.810Z,1016.97
2023-05-19T00:04:20.731Z,1016.95
2023-05-19T00:05:20.817Z,1016.99
2023-05-19T00:06:20.764Z,1016.96
2023-05-19T00:07:20.675Z,1016.95
2023-05-19T00:08:20.680Z,1016.94
2023-05-19T00:09:20.685Z,1016.97
2023-05-19T00:10:20.667Z,1016.94
2023-05-19T00:11:20.647Z,1016.94
2023-05-19T00:12:20.636Z,1016.93
2023-05-19T00:13:20.626Z,1016.91
2023-05-19T00:14:20.613Z,1016.89
2023-05-19T00:15:20.611Z,1016.95
2023-05-19T00:16:20.652Z,1016.94
2023-05-19T00:17:20.567Z,1016.90
2023-05-19T00:18:20.587Z,1016.91
2023-05-19T00:19:20.728Z,1016.92
2023-05-19T00:20:20.560Z,1016.91
2023-05-19T00:21:20.553Z,1016.93
2023-05-19T00:22:20.644Z,1016.92
2023-05-19T00:23:20.520Z,1016.94
2023-05-19T00:24:20.508Z,1016.93
2023-05-19T00:25:20.489Z,1016.88
2023-05-19T00:26:20.470Z,1016.90
2023-05-19T00:27:20.467Z,1016.86
2023-05-19T00:28:20.462Z,1016.89
2023-05-19T00:29:20.467Z,1016.88
2023-05-19T00:30:20.461Z,1016.88
2023-05-19T00:31:20.468Z,1016.85
2023-05-19T00:32:20.430Z,1016.90
2023-05-19T00:33:20.385Z,1016.92
2023-05-19T00:34:20.373Z,1016.92
2023-05-19T00:35:20.397Z,1016.99
2023-05-19T00:36:20.389Z,1016.95
2023-05-19T00:37:20.358Z,1016.97
2023-05-19T00:38:20.368Z,1016.95
2023-05-19T00:39:20.369Z,1016.95
2023-05-19T00:40:20.326Z,1016.99
2023-05-19T00:41:20.319Z,1016.97
2023-05-19T00:42:20.335Z,1016.96
2023-05-19T00:43:20.324Z,1016.92
2023-05-19T00:44:20.321Z,1016.94
2023-05-19T00:45:20.289Z,1016.88
2023-05-19T00:46:20.295Z,1016.94
2023-05-19T00:47:20.336Z,1016.91
2023-05-19T00:48:20.224Z,1016.93
2023-05-19T00:49:20.224Z,1016.92
2023-05-19T00:50:20.204Z,1016.91
2023-05-19T00:51:20.228Z,1016.92
2023-05-19T00:52:20.194Z,1016.86
2023-05-19T00:53:20.178Z,1016.91
2023-05-19T00:54:20.181Z,1016.93
2023-05-19T00:55:20.160Z,1016.94
2023-05-19T00:56:20.160Z,1016.93
2023-05-19T00:57:20.125Z,1016.91
2023-05-19T00:58:20.121Z,1016.91
2023-05-19T00:59:20.103Z,1016.90
2023-05-19T01:00:20.091Z,1016.89
2023-05-19T01:01:20.129Z,1016.90
2023-05-19T01:02:20.126Z,1016.89
2023-05-19T01:03:20.135Z,1016.93
2023-05-19T01:04:20.068Z,1016.93
2023-05-19T01:05:20.065Z,1016.90
2023-05-19T01:06:20.038Z,1016.90
2023-05-19T01:07:20.021Z,1016.91
2023-05-19T01:08:20.019Z,1016.94
2023-05-19T01:09:20.028Z,1016.91
2023-05-19T01:10:20.031Z,1016.96
2023-05-19T01:11:19.999Z,1016.95
2023-05-19T01:12:19.970Z,1016.93
2023-05-19T01:13:19.959Z,1017.00
2023-05-19T01:14:19.965Z,1016.97
2023-05-19T01:15:19.926Z,1016.96
2023-05-19T01:16:19.978Z,1016.99
2023-05-19T01:17:19.937Z,1017.01
2023-05-19T01:18:19.905Z,1016.96
2023-05-19T01:19:20.029Z,1017.04
2023-05-19T01:20:19.872Z,1017.01
2023-05-19T01:21:19.858Z,1016.99
2023-05-19T01:22:19.850Z,1016.97
2023-05-19T01:23:19.860Z,1016.91
2023-05-19T01:24:19.838Z,1016.95
2023-05-19T01:25:19.816Z,1016.90
2023-05-19T01:26:19.841Z,1016.91
2023-05-19T01:27:19.795Z,1016.97
2023-05-19T01:28:19.791Z,1016.90
2023-05-19T01:29:19.784Z,1016.95
2023-05-19T01:30:19.768Z,1016.94
2023-05-19T01:31:19.804Z,1016.97
2023-05-19T01:32:19.760Z,1016.97
2023-05-19T01:33:19.746Z,1016.98
2023-05-19T01:34:19.742Z,1016.91
2023-05-19T01:35:19.719Z,1016.89
2023-05-19T01:36:19.701Z,1016.86
2023-05-19T01:37:19.703Z,1016.91
2023-05-19T01:38:19.717Z,1016.89
2023-05-19T01:39:19.711Z,1016.96
2023-05-19T01:40:19.661Z,1016.89
2023-05-19T01:41:19.651Z,1016.93
2023-05-19T01:42:19.798Z,1016.90
2023-05-19T01:43:19.627Z,1016.94
2023-05-19T01:44:19.624Z,1016.92
2023-05-19T01:45:19.620Z,1016.93
2023-05-19T01:46:19.643Z,1016.90
2023-05-19T01:47:19.577Z,1016.89
2023-05-19T01:48:19.585Z,1016.93
2023-05-19T01:49:19.567Z,1016.92
2023-05-19T01:50:19.550Z,1016.91
2023-05-19T01:51:19.533Z,1016.91
2023-05-19T01:52:19.533Z,1016.88
2023-05-19T01:53:19.520Z,1016.85
2023-05-19T01:54:19.522Z,1016.91
2023-05-19T01:55:19.482Z,1016.87
2023-05-19T01:56:19.478Z,1016.90
2023-05-19T01:57:19.476Z,1016.94
2023-05-19T01:58:19.491Z,1016.96
2023-05-19T01:59:19.448Z,1016.89
2023-05-19T02:00:21.219Z,1016.90
2023-05-19T02:01:19.509Z,1016.95
2023-05-19T02:02:19.420Z,1016.94
2023-05-19T02:03:19.416Z,1016.93
2023-05-19T02:04:19.475Z,1016.96
2023-05-19T02:05:19.396Z,1016.95
2023-05-19T02:06:19.399Z,1016.93
2023-05-19T02:07:19.363Z,1016.97
2023-05-19T02:08:19.349Z,1016.97
2023-05-19T02:09:19.342Z,1016.98
2023-05-19T02:10:19.345Z,1016.96
2023-05-19T02:11:19.306Z,1017.01
2023-05-19T02:12:19.298Z,1016.98
2023-05-19T02:13:19.293Z,1016.97
2023-05-19T02:14:19.316Z,1016.98
2023-05-19T02:15:19.265Z,1016.97
2023-05-19T02:16:19.302Z,1016.99
2023-05-19T02:17:19.248Z,1016.94
2023-05-19T02:18:19.249Z,1017.00
2023-05-19T02:19:19.308Z,1017.03
2023-05-19T02:20:19.214Z,1017.00
2023-05-19T02:21:19.209Z,1017.02
2023-05-19T02:22:19.190Z,1017.01
2023-05-19T02:23:19.184Z,1017.01
2023-05-19T02:24:19.157Z,1016.98
2023-05-19T02:25:19.170Z,1017.03
2023-05-19T02:26:19.159Z,1017.00
2023-05-19T02:27:19.156Z,1017.03
2023-05-19T02:28:19.127Z,1017.02
2023-05-19T02:29:19.137Z,1017.01
2023-05-19T02:30:19.122Z,1017.00
2023-05-19T02:31:19.121Z,1017.01
2023-05-19T02:32:19.135Z,1017.06
2023-05-19T02:33:19.066Z,1017.08
2023-05-19T02:34:19.080Z,1017.00
2023-05-19T02:35:19.068Z,1017.03
2023-05-19T02:36:19.062Z,1017.02
2023-05-19T02:37:19.032Z,1017.00
2023-05-19T02:38:19.004Z,1017.03
2023-05-19T02:39:19.002Z,1017.05
2023-05-19T02:40:19.007Z,1017.06
2023-05-19T02:41:18.969Z,1017.01
2023-05-19T02:42:18.958Z,1017.03
2023-05-19T02:43:18.948Z,1017.00
2023-05-19T02:44:18.939Z,1016.95
2023-05-19T02:45:18.925Z,1016.96
2023-05-19T02:46:19.061Z,1016.98
2023-05-19T02:47:18.934Z,1016.98
2023-05-19T02:48:18.888Z,1017.00
2023-05-19T02:49:18.911Z,1017.00
2023-05-19T02:50:18.887Z,1017.03
2023-05-19T02:51:18.901Z,1017.01
2023-05-19T02:52:18.853Z,1017.03
2023-05-19T02:53:18.882Z,1016.96
2023-05-19T02:54:18.846Z,1016.94
2023-05-19T02:55:18.832Z,1016.96
2023-05-19T02:56:18.829Z,1016.96
2023-05-19T02:57:18.792Z,1016.97
2023-05-19T02:58:18.774Z,1016.92
2023-05-19T02:59:18.797Z,1016.92
2023-05-19T03:00:18.780Z,1016.91
2023-05-19T03:01:18.840Z,1016.92
2023-05-19T03:02:18.774Z,1016.90
2023-05-19T03:03:18.795Z,1016.94
2023-05-19T03:04:18.717Z,1016.92
2023-05-19T03:05:18.703Z,1016.92
2023-05-19T03:06:18.728Z,1016.92
2023-05-19T03:07:18.705Z,1016.91
2023-05-19T03:08:18.666Z,1016.94
2023-05-19T03:09:18.661Z,1016.92
2023-05-19T03:10:18.663Z,1016.92
2023-05-19T03:11:18.664Z,1016.86
2023-05-19T03:12:18.663Z,1016.89
2023-05-19T03:13:18.619Z,1016.88
2023-05-19T03:14:18.660Z,1016.90
2023-05-19T03:15:18.623Z,1016.87
2023-05-19T03:16:18.610Z,1016.89
2023-05-19T03:17:18.643Z,1016.86
2023-05-19T03:18:18.621Z,1016.88
2023-05-19T03:19:18.665Z,1016.82
2023-05-19T03:20:18.542Z,1016.83
2023-05-19T03:21:18.528Z,1016.82
2023-05-19T03:22:18.519Z,1016.82
2023-05-19T03:23:18.527Z,1016.79
2023-05-19T03:24:18.527Z,1016.80
2023-05-19T03:25:18.499Z,1016.76
2023-05-19T03:26:18.469Z,1016.74
2023-05-19T03:27:18.469Z,1016.76
2023-05-19T03:28:18.470Z,1016.77
2023-05-19T03:29:18.458Z,1016.73
2023-05-19T03:30:18.432Z,1016.75
2023-05-19T03:31:18.481Z,1016.75
2023-05-19T03:32:18.433Z,1016.78
2023-05-19T03:33:18.648Z,1016.80
2023-05-19T03:34:18.437Z,1016.83
2023-05-19T03:35:18.380Z,1016.83
2023-05-19T03:36:18.375Z,1016.80
2023-05-19T03:37:18.372Z,1016.84
2023-05-19T03:38:18.335Z,1016.82
2023-05-19T03:39:18.339Z,1016.87
2023-05-19T03:40:18.314Z,1016.82
2023-05-19T03:41:18.316Z,1016.85
2023-05-19T03:42:18.295Z,1016.84
2023-05-19T03:43:18.281Z,1016.87
2023-05-19T03:44:18.272Z,1016.90
2023-05-19T03:45:18.271Z,1016.89
2023-05-19T03:46:18.351Z,1016.89
2023-05-19T03:47:18.283Z,1016.88
2023-05-19T03:48:21.118Z,1016.94
2023-05-19T03:49:18.216Z,1016.93
2023-05-19T03:50:18.255Z,1016.93
2023-05-19T03:51:18.200Z,1016.93
2023-05-19T03:52:18.178Z,1017.01
2023-05-19T03:53:18.188Z,1017.00
2023-05-19T03:54:18.181Z,1016.98
2023-05-19T03:55:18.160Z,1016.94
2023-05-19T03:56:18.182Z,1016.98
2023-05-19T03:57:18.130Z,1016.94
2023-05-19T03:58:18.120Z,1016.98
2023-05-19T03:59:18.115Z,1016.97
2023-05-19T04:00:18.101Z,1016.94
2023-05-19T04:01:18.118Z,1016.93
2023-05-19T04:02:18.106Z,1016.95
2023-05-19T04:03:18.176Z,1016.96
2023-05-19T04:04:18.098Z,1016.97
2023-05-19T04:05:18.034Z,1016.92
2023-05-19T04:06:18.061Z,1016.95
2023-05-19T04:07:18.029Z,1016.93
2023-05-19T04:08:18.016Z,1016.90
2023-05-19T04:09:17.987Z,1016.89
2023-05-19T04:10:17.974Z,1016.90
2023-05-19T04:11:17.998Z,1016.87
2023-05-19T04:12:17.951Z,1016.96
2023-05-19T04:13:17.948Z,1016.95
2023-05-19T04:14:17.935Z,1016.91
2023-05-19T04:15:17.922Z,1016.92
2023-05-19T04:16:18.042Z,1016.94
2023-05-19T04:17:17.906Z,1016.99
2023-05-19T04:18:17.888Z,1017.02
2023-05-19T04:19:17.984Z,1016.99
2023-05-19T04:20:17.870Z,1016.98
2023-05-19T04:21:17.878Z,1016.95
2023-05-19T04:22:17.897Z,1016.91
2023-05-19T04:23:17.846Z,1016.87
2023-05-19T04:24:17.838Z,1016.88
2023-05-19T04:25:17.826Z,1016.88
2023-05-19T04:26:17.872Z,1016.86
2023-05-19T04:27:17.793Z,1016.87
2023-05-19T04:28:17.782Z,1016.87
2023-05-19T04:29:17.801Z,1016.86
2023-05-19T04:30:30.240Z,1016.81
2023-05-19T04:31:18.817Z,1016.88
2023-05-19T04:32:18.151Z,1016.88
2023-05-19T04:33:17.717Z,1016.85
2023-05-19T04:34:17.730Z,1016.88
2023-05-19T04:35:17.714Z,1016.87
2023-05-19T04:36:17.701Z,1016.86
2023-05-19T04:37:17.692Z,1016.83
2023-05-19T04:38:17.691Z,1016.84
2023-05-19T04:39:17.656Z,1016.84
2023-05-19T04:40:17.692Z,1016.88
2023-05-19T04:41:17.656Z,1016.89
2023-05-19T04:42:17.642Z,1016.93
2023-05-19T04:43:17.608Z,1016.90
2023-05-19T04:44:17.593Z,1016.94
2023-05-19T04:45:17.607Z,1016.96
2023-05-19T04:46:17.605Z,1016.92
2023-05-19T04:47:17.572Z,1016.97
2023-05-19T04:48:17.562Z,1016.97
2023-05-19T04:49:17.606Z,1016.91
2023-05-19T04:50:17.550Z,1016.93
2023-05-19T04:51:17.515Z,1016.95
2023-05-19T04:52:17.526Z,1016.92
2023-05-19T04:53:17.498Z,1016.92
2023-05-19T04:54:17.523Z,1016.95
2023-05-19T04:55:17.524Z,1016.94
2023-05-19T04:56:17.474Z,1016.97
2023-05-19T04:57:17.485Z,1016.97
2023-05-19T04:58:17.488Z,1016.94
2023-05-19T04:59:17.437Z,1016.95
2023-05-19T05:00:17.426Z,1016.97
2023-05-19T05:01:17.487Z,1016.97
2023-05-19T05:02:17.528Z,1016.98
2023-05-19T05:03:17.573Z,1016.99
2023-05-19T05:04:17.433Z,1016.98
2023-05-19T05:05:17.368Z,1016.98
2023-05-19T05:06:17.366Z,1016.94
2023-05-19T05:07:17.376Z,1017.01
2023-05-19T05:08:17.406Z,1016.98
2023-05-19T05:09:17.378Z,1016.98
2023-05-19T05:10:17.370Z,1017.01
2023-05-19T05:11:17.313Z,1017.00
2023-05-19T05:12:17.293Z,1016.98
2023-05-19T05:13:17.313Z,1017.01
2023-05-19T05:14:17.332Z,1017.00
2023-05-19T05:15:17.280Z,1017.04
2023-05-19T05:16:17.320Z,1017.02
2023-05-19T05:17:17.255Z,1016.99
2023-05-19T05:18:17.253Z,1016.98
2023-05-19T05:19:17.280Z,1017.02
2023-05-19T05:20:17.223Z,1017.06
2023-05-19T05:21:17.202Z,1017.02
2023-05-19T05:22:17.167Z,1017.00
2023-05-19T05:23:17.256Z,1017.06
2023-05-19T05:24:26.130Z,1017.02
2023-05-19T05:25:17.172Z,1017.05
2023-05-19T05:26:17.181Z,1017.05
2023-05-19T05:27:17.133Z,1017.05
2023-05-19T05:28:17.122Z,1017.04
2023-05-19T05:29:17.084Z,1017.03
2023-05-19T05:30:17.102Z,1016.97
2023-05-19T05:31:17.087Z,1016.97
2023-05-19T05:32:17.161Z,1016.98
2023-05-19T05:33:17.200Z,1016.99
2023-05-19T05:34:17.080Z,1016.96
2023-05-19T05:35:17.039Z,1016.99
2023-05-19T05:36:17.023Z,1016.97
2023-05-19T05:37:17.014Z,1016.94
2023-05-19T05:38:17.004Z,1016.92
2023-05-19T05:39:16.993Z,1016.90
2023-05-19T05:40:17.002Z,1016.91
2023-05-19T05:41:16.973Z,1016.90
2023-05-19T05:42:17.075Z,1016.92
2023-05-19T05:43:16.948Z,1016.92
2023-05-19T05:44:16.969Z,1016.91
2023-05-19T05:45:16.940Z,1016.90
2023-05-19T05:46:16.977Z,1016.85
2023-05-19T05:47:16.897Z,1016.88
2023-05-19T05:48:16.997Z,1016.87
2023-05-19T05:49:16.894Z,1016.88
2023-05-19T05:50:16.881Z,1016.84
2023-05-19T05:51:16.886Z,1016.85
2023-05-19T05:52:16.861Z,1016.84
2023-05-19T05:53:16.867Z,1016.87
2023-05-19T05:54:16.859Z,1016.89
2023-05-19T05:55:16.827Z,1016.87
2023-05-19T05:56:16.836Z,1016.89
2023-05-19T05:57:17.113Z,1016.91
2023-05-19T05:58:16.803Z,1016.88
2023-05-19T05:59:16.807Z,1016.89
2023-05-19T06:00:16.762Z,1016.89
2023-05-19T06:01:16.743Z,1016.92
2023-05-19T06:02:16.796Z,1016.90
2023-05-19T06:03:16.905Z,1016.93
2023-05-19T06:04:16.744Z,1016.93
2023-05-19T06:05:16.824Z,1016.93
2023-05-19T06:06:16.702Z,1016.91
2023-05-19T06:07:16.697Z,1016.96
2023-05-19T06:08:16.710Z,1016.91
2023-05-19T06:09:16.716Z,1016.91
2023-05-19T06:10:16.673Z,1016.94
2023-05-19T06:11:16.657Z,1016.87
2023-05-19T06:12:16.633Z,1016.93
2023-05-19T06:13:16.657Z,1016.88
2023-05-19T06:14:16.683Z,1016.84
2023-05-19T06:15:16.617Z,1016.89
2023-05-19T06:16:16.709Z,1016.89
2023-05-19T06:17:16.575Z,1016.84
2023-05-19T06:18:16.604Z,1016.82
2023-05-19T06:19:16.634Z,1016.79
2023-05-19T06:20:16.562Z,1016.81
2023-05-19T06:21:16.519Z,1016.81
2023-05-19T06:22:16.557Z,1016.81
2023-05-19T06:23:16.541Z,1016.82
2023-05-19T06:24:16.506Z,1016.79
2023-05-19T06:25:16.493Z,1016.80
2023-05-19T06:26:16.465Z,1016.81
2023-05-19T06:27:16.484Z,1016.79
2023-05-19T06:28:16.497Z,1016.78
2023-05-19T06:29:16.455Z,1016.78
2023-05-19T06:30:16.501Z,1016.79
2023-05-19T06:31:16.520Z,1016.78
2023-05-19T06:32:16.420Z,1016.82
2023-05-19T06:33:16.420Z,1016.79
2023-05-19T06:34:16.401Z,1016.79
2023-05-19T06:35:16.369Z,1016.77
2023-05-19T06:36:16.357Z,1016.76
2023-05-19T06:37:16.382Z,1016.74
2023-05-19T06:38:16.372Z,1016.76
2023-05-19T06:39:16.360Z,1016.71
2023-05-19T06:40:16.316Z,1016.72
2023-05-19T06:41:16.329Z,1016.76
2023-05-19T06:42:16.321Z,1016.72
2023-05-19T06:43:16.294Z,1016.72
2023-05-19T06:44:16.292Z,1016.71
2023-05-19T06:45:16.299Z,1016.71
2023-05-19T06:46:16.306Z,1016.76
2023-05-19T06:47:16.363Z,1016.74
2023-05-19T06:48:16.387Z,1016.72
2023-05-19T06:49:16.248Z,1016.71
2023-05-19T06:50:16.264Z,1016.72
2023-05-19T06:51:16.222Z,1016.70
2023-05-19T06:52:16.183Z,1016.69
2023-05-19T06:53:16.178Z,1016.66
2023-05-19T06:54:16.556Z,1016.64
2023-05-19T06:55:16.149Z,1016.67
2023-05-19T06:56:16.156Z,1016.69
2023-05-19T06:57:16.158Z,1016.67
2023-05-19T06:58:16.128Z,1016.67
2023-05-19T06:59:16.116Z,1016.68
2023-05-19T07:00:18.364Z,1016.70
2023-05-19T07:01:16.143Z,1016.67
2023-05-19T07:02:16.454Z,1016.63
2023-05-19T07:03:16.168Z,1016.69
2023-05-19T07:04:16.080Z,1016.63
2023-05-19T07:05:16.059Z,1016.63
2023-05-19T07:06:16.052Z,1016.62
2023-05-19T07:07:16.047Z,1016.65
2023-05-19T07:08:16.027Z,1016.66
2023-05-19T07:09:15.991Z,1016.59
2023-05-19T07:10:16.065Z,1016.63
2023-05-19T07:11:15.985Z,1016.62
2023-05-19T07:12:15.973Z,1016.61
2023-05-19T07:13:15.951Z,1016.57
2023-05-19T07:14:15.983Z,1016.60
2023-05-19T07:15:15.951Z,1016.55
2023-05-19T07:16:16.041Z,1016.51
2023-05-19T07:17:15.919Z,1016.50
2023-05-19T07:18:15.948Z,1016.51
2023-05-19T07:19:15.917Z,1016.51
2023-05-19T07:20:15.896Z,1016.48
2023-05-19T07:21:15.890Z,1016.50
2023-05-19T07:22:15.860Z,1016.48
2023-05-19T07:23:17.379Z,1016.47
2023-05-19T07:24:15.844Z,1016.44
2023-05-19T07:25:15.845Z,1016.44
2023-05-19T07:26:16.149Z,1016.46
2023-05-19T07:27:15.791Z,1016.47
2023-05-19T07:28:15.780Z,1016.46
2023-05-19T07:29:15.791Z,1016.49
2023-05-19T07:30:15.779Z,1016.51
2023-05-19T07:31:15.758Z,1016.55
2023-05-19T07:32:15.850Z,1016.50
2023-05-19T07:33:15.853Z,1016.52
2023-05-19T07:34:15.798Z,1016.50
2023-05-19T07:35:15.722Z,1016.47
2023-05-19T07:36:15.705Z,1016.44
2023-05-19T07:37:15.683Z,1016.51
2023-05-19T07:38:15.728Z,1016.53
2023-05-19T07:39:15.805Z,1016.44
2023-05-19T07:40:15.654Z,1016.44
2023-05-19T07:41:15.637Z,1016.46
2023-05-19T07:42:15.637Z,1016.43
2023-05-19T07:43:15.631Z,1016.44
2023-05-19T07:44:15.622Z,1016.43
2023-05-19T07:45:15.626Z,1016.44
2023-05-19T07:46:15.709Z,1016.36
2023-05-19T07:47:15.556Z,1016.34
2023-05-19T07:48:15.629Z,1016.38
2023-05-19T07:49:15.562Z,1016.36
2023-05-19T07:50:15.574Z,1016.33
2023-05-19T07:51:15.539Z,1016.34
2023-05-19T07:52:15.509Z,1016.35
2023-05-19T07:53:15.539Z,1016.33
2023-05-19T07:54:15.514Z,1016.34
2023-05-19T07:55:15.506Z,1016.35
2023-05-19T07:56:15.465Z,1016.35
2023-05-19T07:57:15.448Z,1016.32
2023-05-19T07:58:15.443Z,1016.33
2023-05-19T07:59:15.454Z,1016.32
2023-05-19T08:00:15.437Z,1016.29
2023-05-19T08:01:15.427Z,1016.32
2023-05-19T08:02:15.437Z,1016.28
2023-05-19T08:03:15.578Z,1016.29
2023-05-19T08:04:15.468Z,1016.26
2023-05-19T08:05:15.350Z,1016.30
2023-05-19T08:06:15.377Z,1016.29
2023-05-19T08:07:15.358Z,1016.30
2023-05-19T08:08:15.346Z,1016.30
2023-05-19T08:09:15.324Z,1016.29
2023-05-19T08:10:15.318Z,1016.32
2023-05-19T08:11:15.297Z,1016.27
2023-05-19T08:12:15.279Z,1016.30
2023-05-19T08:13:15.314Z,1016.28
2023-05-19T08:14:15.266Z,1016.28
2023-05-19T08:15:15.244Z,1016.28
2023-05-19T08:16:15.315Z,1016.31
2023-05-19T08:17:15.233Z,1016.26
2023-05-19T08:18:15.226Z,1016.29
2023-05-19T08:19:15.305Z,1016.24
2023-05-19T08:20:15.216Z,1016.20
2023-05-19T08:21:15.168Z,1016.19
2023-05-19T08:22:15.302Z,1016.16
2023-05-19T08:23:15.177Z,1016.15
2023-05-19T08:24:15.157Z,1016.11
2023-05-19T08:25:15.169Z,1016.15
2023-05-19T08:26:15.122Z,1016.07
2023-05-19T08:27:15.142Z,1016.05
2023-05-19T08:28:15.126Z,1016.08
2023-05-19T08:29:15.103Z,1016.02
2023-05-19T08:30:15.091Z,1016.06
2023-05-19T08:31:15.131Z,1016.07
2023-05-19T08:32:15.065Z,1016.05
2023-05-19T08:33:15.134Z,1016.05
2023-05-19T08:34:15.028Z,1016.05
2023-05-19T08:35:15.038Z,1016.05
2023-05-19T08:36:15.052Z,1016.02
2023-05-19T08:37:15.017Z,1016.04
2023-05-19T08:38:15.017Z,1016.04
2023-05-19T08:39:14.980Z,1016.02
2023-05-19T08:40:14.978Z,1016.00
2023-05-19T08:41:14.974Z,1015.90
2023-05-19T08:42:14.959Z,1015.93
2023-05-19T08:43:14.943Z,1015.91
2023-05-19T08:44:16.548Z,1015.95
2023-05-19T08:45:14.912Z,1015.93
2023-05-19T08:46:15.112Z,1015.91
2023-05-19T08:47:14.919Z,1015.95
2023-05-19T08:48:14.955Z,1015.91
2023-05-19T08:49:14.879Z,1015.94
2023-05-19T08:50:14.888Z,1015.92
2023-05-19T08:51:14.868Z,1015.94
2023-05-19T08:52:14.844Z,1015.91
2023-05-19T08:53:28.883Z,1015.89
2023-05-19T08:54:15.862Z,1015.84
2023-05-19T08:55:14.795Z,1015.86
2023-05-19T08:56:14.806Z,1015.83
2023-05-19T08:57:14.787Z,1015.84
2023-05-19T08:58:14.760Z,1015.88
2023-05-19T08:59:14.762Z,1015.84
2023-05-19T09:00:14.769Z,1015.82
2023-05-19T09:01:14.807Z,1015.84
2023-05-19T09:02:14.728Z,1015.85
2023-05-19T09:04:14.764Z,1015.78
2023-05-19T09:05:14.735Z,1015.70
2023-05-19T09:06:14.698Z,1015.71
2023-05-19T09:07:14.681Z,1015.67
2023-05-19T09:08:14.639Z,1015.63
2023-05-19T09:09:14.639Z,1015.66
2023-05-19T09:10:14.640Z,1015.62
2023-05-19T09:11:14.615Z,1015.57
2023-05-19T09:12:14.603Z,1015.63
2023-05-19T09:13:14.610Z,1015.59
2023-05-19T09:14:14.589Z,1015.59
2023-05-19T09:15:14.583Z,1015.54
2023-05-19T09:16:14.608Z,1015.57
2023-05-19T09:17:14.554Z,1015.54
2023-05-19T09:18:14.566Z,1015.54
2023-05-19T09:19:14.534Z,1015.58
2023-05-19T09:20:14.519Z,1015.56
2023-05-19T09:21:14.519Z,1015.58
2023-05-19T09:22:14.482Z,1015.61
2023-05-19T09:23:14.472Z,1015.58
2023-05-19T09:24:14.482Z,1015.58
2023-05-19T09:25:14.484Z,1015.56
2023-05-19T09:26:14.499Z,1015.57
2023-05-19T09:27:14.427Z,1015.56
2023-05-19T09:28:14.435Z,1015.56
2023-05-19T09:29:14.439Z,1015.50
2023-05-19T09:30:14.405Z,1015.50
2023-05-19T09:31:14.397Z,1015.49
2023-05-19T09:32:14.400Z,1015.36
2023-05-19T09:33:14.415Z,1015.47
2023-05-19T09:34:14.364Z,1015.39
2023-05-19T09:35:14.370Z,1015.38
2023-05-19T09:36:14.640Z,1015.36
2023-05-19T09:37:14.346Z,1015.35
2023-05-19T09:38:14.308Z,1015.32
2023-05-19T09:39:14.317Z,1015.31
2023-05-19T09:40:15.116Z,1015.34
2023-05-19T09:41:14.274Z,1015.36
2023-05-19T09:42:14.302Z,1015.39
2023-05-19T09:43:14.256Z,1015.44
2023-05-19T09:44:14.262Z,1015.44
2023-05-19T09:45:14.255Z,1015.40
2023-05-19T09:46:14.774Z,1015.36
2023-05-19T09:47:14.193Z,1015.39
2023-05-19T09:48:14.207Z,1015.32
2023-05-19T09:49:14.194Z,1015.34
2023-05-19T09:50:14.243Z,1015.35
2023-05-19T09:51:14.190Z,1015.37
2023-05-19T09:52:14.146Z,1015.35
2023-05-19T09:53:14.157Z,1015.32
2023-05-19T09:54:14.127Z,1015.32
2023-05-19T09:55:14.127Z,1015.26
2023-05-19T09:56:14.101Z,1015.26
2023-05-19T09:57:14.172Z,1015.25
2023-05-19T09:58:14.163Z,1015.25
2023-05-19T09:59:14.094Z,1015.27
2023-05-19T10:00:14.072Z,1015.21
2023-05-19T10:01:14.073Z,1015.23
2023-05-19T10:02:14.067Z,1015.26
2023-05-19T10:03:14.131Z,1015.29
2023-05-19T10:04:14.015Z,1015.30
2023-05-19T10:05:14.061Z,1015.29
2023-05-19T10:06:14.031Z,1015.24
2023-05-19T10:07:14.004Z,1015.21
2023-05-19T10:08:13.989Z,1015.23
2023-05-19T10:09:13.956Z,1015.22
2023-05-19T10:10:13.955Z,1015.21
2023-05-19T10:11:13.928Z,1015.22
2023-05-19T10:12:13.949Z,1015.18
2023-05-19T10:13:13.920Z,1015.20
2023-05-19T10:14:13.942Z,1015.15
2023-05-19T10:15:13.891Z,1015.09
2023-05-19T10:16:13.900Z,1015.11
2023-05-19T10:17:13.890Z,1015.09
2023-05-19T10:18:13.930Z,1015.08
2023-05-19T10:19:13.942Z,1015.02
2023-05-19T10:20:13.838Z,1015.00
2023-05-19T10:21:13.824Z,1014.92
2023-05-19T10:22:13.836Z,1015.03
2023-05-19T10:23:13.833Z,1015.02
2023-05-19T10:24:13.804Z,1014.99
2023-05-19T10:25:13.782Z,1014.97
2023-05-19T10:26:13.771Z,1014.98
2023-05-19T10:27:13.767Z,1014.99
2023-05-19T10:28:13.782Z,1015.02
2023-05-19T10:29:13.716Z,1014.97
2023-05-19T10:30:14.421Z,1014.93
2023-05-19T10:31:13.727Z,1014.98
2023-05-19T10:32:13.724Z,1014.98
2023-05-19T10:33:13.741Z,1014.95
2023-05-19T10:34:13.680Z,1014.96
2023-05-19T10:35:13.650Z,1014.98
2023-05-19T10:36:13.666Z,1014.94
2023-05-19T10:37:13.643Z,1014.99
2023-05-19T10:38:13.634Z,1014.97
2023-05-19T10:39:13.629Z,1014.90
2023-05-19T10:40:13.606Z,1014.89
2023-05-19T10:41:13.611Z,1014.88
2023-05-19T10:42:13.583Z,1014.94
2023-05-19T10:43:13.572Z,1014.95
2023-05-19T10:44:13.576Z,1014.95
2023-05-19T10:45:13.556Z,1014.96
2023-05-19T10:46:13.621Z,1014.90
2023-05-19T10:47:13.614Z,1014.88
2023-05-19T10:48:13.549Z,1014.86
2023-05-19T10:49:13.514Z,1014.85
2023-05-19T10:50:13.534Z,1014.87
2023-05-19T10:51:13.517Z,1014.93
2023-05-19T10:52:13.471Z,1014.92
2023-05-19T10:53:13.487Z,1014.91
2023-05-19T10:54:14.425Z,1014.90
2023-05-19T10:55:13.457Z,1014.82
2023-05-19T10:56:13.436Z,1014.86
2023-05-19T10:57:13.440Z,1014.86
2023-05-19T10:58:13.402Z,1014.85
2023-05-19T10:59:13.388Z,1014.80
2023-05-19T11:00:13.394Z,1014.79
2023-05-19T11:01:13.420Z,1014.71
2023-05-19T11:02:13.450Z,1014.72
2023-05-19T11:03:13.421Z,1014.72
2023-05-19T11:04:13.377Z,1014.72
2023-05-19T11:05:13.360Z,1014.69
2023-05-19T11:06:13.318Z,1014.69
2023-05-19T11:07:13.344Z,1014.72
2023-05-19T11:08:13.302Z,1014.66
2023-05-19T11:09:13.294Z,1014.62
2023-05-19T11:10:13.301Z,1014.69
2023-05-19T11:11:13.305Z,1014.67
2023-05-19T11:12:13.237Z,1014.66
2023-05-19T11:13:14.946Z,1014.63
2023-05-19T11:14:13.264Z,1014.60
2023-05-19T11:15:13.225Z,1014.59
2023-05-19T11:16:13.270Z,1014.67
2023-05-19T11:17:13.209Z,1014.69
2023-05-19T11:18:13.209Z,1014.70
2023-05-19T11:19:13.245Z,1014.70
2023-05-19T11:20:13.216Z,1014.66
2023-05-19T11:21:13.168Z,1014.69
2023-05-19T11:22:13.157Z,1014.67
2023-05-19T11:23:13.153Z,1014.67
2023-05-19T11:24:13.136Z,1014.68
2023-05-19T11:25:13.133Z,1014.65
2023-05-19T11:26:13.124Z,1014.62
2023-05-19T11:27:13.093Z,1014.54
2023-05-19T11:28:13.116Z,1014.59
2023-05-19T11:29:13.079Z,1014.57
2023-05-19T11:30:13.066Z,1014.60
2023-05-19T11:31:13.045Z,1014.61
2023-05-19T11:32:13.176Z,1014.64
2023-05-19T11:33:13.066Z,1014.62
2023-05-19T11:34:13.058Z,1014.59
2023-05-19T11:35:13.029Z,1014.62
2023-05-19T11:36:12.991Z,1014.54
2023-05-19T11:37:12.981Z,1014.55
2023-05-19T11:38:12.978Z,1014.53
2023-05-19T11:39:12.964Z,1014.51
2023-05-19T11:40:13.058Z,1014.51
2023-05-19T11:41:12.927Z,1014.45
2023-05-19T11:42:12.920Z,1014.43
2023-05-19T11:43:12.918Z,1014.43
2023-05-19T11:44:12.915Z,1014.35
2023-05-19T11:45:12.919Z,1014.35
2023-05-19T11:46:12.946Z,1014.42
2023-05-19T11:47:12.893Z,1014.44
2023-05-19T11:48:12.947Z,1014.44
2023-05-19T11:49:12.862Z,1014.42
2023-05-19T11:50:12.857Z,1014.42
2023-05-19T11:51:12.831Z,1014.42
2023-05-19T11:52:12.882Z,1014.46
2023-05-19T11:53:12.814Z,1014.37
2023-05-19T11:54:12.788Z,1014.42
2023-05-19T11:55:12.808Z,1014.35
2023-05-19T11:56:12.765Z,1014.32
2023-05-19T11:57:12.784Z,1014.33
2023-05-19T11:58:12.759Z,1014.31
2023-05-19T11:59:12.748Z,1014.28
2023-05-19T12:00:12.713Z,1014.28
2023-05-19T12:01:12.705Z,1014.27
2023-05-19T12:02:12.725Z,1014.27
2023-05-19T12:03:12.734Z,1014.24
2023-05-19T12:04:12.677Z,1014.24
2023-05-19T12:05:12.710Z,1014.23
2023-05-19T12:06:12.773Z,1014.23